createdAt,value
2018-09-02T00:00:36.924Z,12.17
2018-09-02T00:01:40.002Z,12.22
2018-09-02T00:02:42.942Z,12.24
2018-09-02T00:03:45.781Z,12.18
2018-09-02T00:04:49.336Z,12.09
2018-09-02T00:05:52.797Z,12.08
2018-09-02T00:06:55.668Z,12.08
2018-09-02T00:07:59.404Z,12.04
2018-09-02T00:09:02.379Z,12.04
2018-09-02T00:10:05.247Z,12.03
2018-09-02T00:11:08.124Z,12.01
2018-09-02T00:12:11.309Z,12.04
2018-09-02T00:13:14.183Z,12.15
2018-09-02T00:14:17.059Z,12.15
2018-09-02T00:15:19.969Z,12.06
2018-09-02T00:16:22.889Z,11.95
2018-09-02T00:17:25.749Z,12.01
2018-09-02T00:18:28.879Z,12.03
2018-09-02T00:19:31.740Z,12.05
2018-09-02T00:20:34.668Z,11.92
2018-09-02T00:21:37.564Z,11.84
2018-09-02T00:22:40.423Z,11.89
2018-09-02T00:23:43.300Z,11.79
2018-09-02T00:24:46.469Z,11.81
2018-09-02T00:25:49.340Z,11.87
2018-09-02T00:26:52.222Z,11.75
2018-09-02T00:27:55.297Z,11.76
2018-09-02T00:28:58.599Z,11.78
2018-09-02T00:30:01.466Z,11.63
2018-09-02T00:31:04.620Z,11.47
2018-09-02T00:32:07.532Z,11.31
2018-09-02T00:33:10.454Z,11.35
2018-09-02T00:34:13.312Z,11.43
2018-09-02T00:35:16.222Z,11.38
2018-09-02T00:36:19.093Z,11.46
2018-09-02T00:37:23.326Z,11.51
2018-09-02T00:38:26.208Z,11.56
2018-09-02T00:39:29.078Z,11.56
2018-09-02T00:40:31.928Z,11.56
2018-09-02T00:41:34.774Z,11.48
2018-09-02T00:42:37.629Z,11.35
2018-09-02T00:43:42.061Z,10.81
2018-09-02T00:44:44.932Z,10.91
2018-09-02T00:45:47.896Z,10.92
2018-09-02T00:46:50.778Z,10.85
2018-09-02T00:47:53.664Z,10.76
2018-09-02T00:48:56.623Z,10.88
2018-09-02T00:49:59.975Z,10.85
2018-09-02T00:51:02.830Z,10.86
2018-09-02T00:52:05.702Z,10.90
2018-09-02T00:53:08.584Z,10.83
2018-09-02T00:54:11.446Z,10.80
2018-09-02T00:55:14.323Z,10.80
2018-09-02T00:56:17.651Z,10.57
2018-09-02T00:57:20.633Z,10.31
2018-09-02T00:58:23.523Z,10.38
2018-09-02T00:59:26.374Z,10.35
2018-09-02T01:00:29.213Z,10.12
2018-09-02T01:01:32.046Z,10.34
2018-09-02T01:02:35.367Z,10.60
2018-09-02T01:03:38.296Z,10.75
2018-09-02T01:04:41.159Z,10.77
2018-09-02T01:05:44.041Z,10.69
2018-09-02T01:06:46.921Z,10.61
2018-09-02T01:07:49.789Z,10.62
2018-09-02T01:08:53.095Z,10.65
2018-09-02T01:09:55.940Z,10.57
2018-09-02T01:10:58.791Z,10.51
2018-09-02T01:12:01.651Z,10.53
2018-09-02T01:13:04.700Z,10.60
2018-09-02T01:14:07.757Z,10.63
2018-09-02T01:15:11.089Z,10.60
2018-09-02T01:16:14.003Z,10.57
2018-09-02T01:17:16.872Z,10.55
2018-09-02T01:18:19.753Z,10.46
2018-09-02T01:19:22.614Z,10.25
2018-09-02T01:20:25.514Z,10.09
2018-09-02T01:21:28.757Z,10.06
2018-09-02T01:22:31.642Z,10.11
2018-09-02T01:23:34.512Z,9.80
2018-09-02T01:24:37.382Z,9.58
2018-09-02T01:25:40.808Z,9.76
2018-09-02T01:26:44.621Z,10.07
2018-09-02T01:27:47.935Z,10.28
2018-09-02T01:28:52.533Z,10.10
2018-09-02T01:29:55.407Z,10.17
2018-09-02T01:30:58.296Z,10.29
2018-09-02T01:32:01.204Z,10.29
2018-09-02T01:33:04.091Z,10.38
2018-09-02T01:34:07.394Z,10.42
2018-09-02T01:35:14.217Z,10.37
2018-09-02T01:36:17.118Z,10.38
2018-09-02T01:37:20.017Z,10.37
2018-09-02T01:38:22.882Z,10.39
2018-09-02T01:39:25.747Z,10.43
2018-09-02T01:40:29.107Z,10.48
2018-09-02T01:41:32.019Z,10.39
2018-09-02T01:42:34.909Z,10.37
2018-09-02T01:43:37.790Z,10.39
2018-09-02T01:44:40.703Z,10.37
2018-09-02T01:45:43.577Z,10.37
2018-09-02T01:46:46.961Z,10.43
2018-09-02T01:47:49.850Z,10.45
2018-09-02T01:48:52.765Z,10.49
2018-09-02T01:49:55.605Z,10.50
2018-09-02T01:50:58.495Z,10.52
2018-09-02T01:52:01.361Z,10.62
2018-09-02T01:53:04.675Z,10.64
2018-09-02T01:54:07.537Z,10.63
2018-09-02T01:55:10.421Z,10.62
2018-09-02T01:56:13.298Z,10.61
2018-09-02T01:57:16.189Z,10.59
2018-09-02T01:58:19.046Z,10.60
2018-09-02T01:59:22.229Z,10.59
2018-09-02T02:00:25.119Z,10.53
2018-09-02T02:01:28.014Z,10.47
2018-09-02T02:02:31.653Z,10.47
2018-09-02T02:03:34.563Z,10.43
2018-09-02T02:04:43.258Z,10.35
2018-09-02T02:05:46.237Z,10.30
2018-09-02T02:06:49.098Z,10.32
2018-09-02T02:07:51.982Z,10.28
2018-09-02T02:08:54.869Z,10.23
2018-09-02T02:09:57.757Z,10.13
2018-09-02T02:11:00.924Z,10.01
2018-09-02T02:12:03.820Z,10.02
2018-09-02T02:13:06.674Z,10.09
2018-09-02T02:14:09.669Z,10.11
2018-09-02T02:15:12.561Z,10.17
2018-09-02T02:16:15.443Z,10.29
2018-09-02T02:17:18.719Z,10.24
2018-09-02T02:18:21.693Z,10.20
2018-09-02T02:19:24.787Z,10.18
2018-09-02T02:20:27.701Z,10.24
2018-09-02T02:21:30.571Z,10.23
2018-09-02T02:22:33.678Z,10.19
2018-09-02T02:23:36.939Z,10.17
2018-09-02T02:24:40.046Z,10.17
2018-09-02T02:25:43.687Z,10.16
2018-09-02T02:26:46.669Z,10.22
2018-09-02T02:27:49.535Z,10.32
2018-09-02T02:28:52.419Z,10.36
2018-09-02T02:29:55.672Z,10.45
2018-09-02T02:30:58.562Z,10.47
2018-09-02T02:32:01.469Z,10.40
2018-09-02T02:33:04.412Z,10.42
2018-09-02T02:34:07.295Z,10.49
2018-09-02T02:35:10.178Z,10.45
2018-09-02T02:36:14.449Z,10.41
2018-09-02T02:37:17.314Z,10.31
2018-09-02T02:38:20.177Z,10.32
2018-09-02T02:39:23.826Z,10.27
2018-09-02T02:40:26.707Z,10.35
2018-09-02T02:41:30.119Z,10.30
2018-09-02T02:42:33.365Z,10.31
2018-09-02T02:43:36.256Z,10.24
2018-09-02T02:44:39.155Z,10.32
2018-09-02T02:45:42.050Z,10.21
2018-09-02T02:46:44.983Z,10.27
2018-09-02T02:47:47.898Z,10.34
2018-09-02T02:48:51.216Z,10.30
2018-09-02T02:49:54.078Z,10.22
2018-09-02T02:50:56.961Z,10.16
2018-09-02T02:51:59.851Z,10.03
2018-09-02T02:53:04.390Z,9.96
2018-09-02T02:54:07.322Z,9.96
2018-09-02T02:55:10.827Z,9.95
2018-09-02T02:56:13.710Z,10.03
2018-09-02T02:57:16.586Z,10.03
2018-09-02T02:58:19.482Z,10.01
2018-09-02T02:59:22.349Z,10.06
2018-09-02T03:00:25.204Z,10.16
2018-09-02T03:01:28.580Z,10.05
2018-09-02T03:02:31.519Z,9.74
2018-09-02T03:03:34.436Z,9.84
2018-09-02T03:04:38.500Z,9.84
2018-09-02T03:05:41.376Z,9.84
2018-09-02T03:06:44.296Z,9.87
2018-09-02T03:07:47.682Z,9.90
2018-09-02T03:08:50.587Z,9.91
2018-09-02T03:09:53.472Z,9.73
2018-09-02T03:10:57.537Z,9.64
2018-09-02T03:12:00.522Z,9.59
2018-09-02T03:13:04.022Z,9.56
2018-09-02T03:14:07.682Z,9.63
2018-09-02T03:15:10.595Z,9.54
2018-09-02T03:16:13.535Z,9.59
2018-09-02T03:17:16.422Z,9.67
2018-09-02T03:18:19.335Z,9.76
2018-09-02T03:19:23.258Z,9.90
2018-09-02T03:20:26.530Z,9.89
2018-09-02T03:21:29.381Z,9.90
2018-09-02T03:22:32.259Z,9.92
2018-09-02T03:23:35.215Z,9.96
2018-09-02T03:24:38.085Z,10.00
2018-09-02T03:25:40.998Z,9.96
2018-09-02T03:26:44.365Z,9.90
2018-09-02T03:27:47.254Z,9.86
2018-09-02T03:28:50.433Z,9.80
2018-09-02T03:29:53.558Z,9.83
2018-09-02T03:30:57.493Z,9.78
2018-09-02T03:32:00.378Z,9.63
2018-09-02T03:33:04.601Z,9.46
2018-09-02T03:34:07.647Z,9.51
2018-09-02T03:35:10.546Z,9.54
2018-09-02T03:36:13.403Z,9.58
2018-09-02T03:37:16.745Z,9.68
2018-09-02T03:38:19.632Z,9.76
2018-09-02T03:39:22.943Z,9.67
2018-09-02T03:40:25.829Z,9.61
2018-09-02T03:41:28.709Z,9.74
2018-09-02T03:42:31.623Z,9.79
2018-09-02T03:43:34.489Z,9.77
2018-09-02T03:44:37.363Z,9.71
2018-09-02T03:45:40.255Z,9.81
2018-09-02T03:46:43.149Z,9.92
2018-09-02T03:47:46.026Z,9.91
2018-09-02T03:48:49.259Z,9.87
2018-09-02T03:49:52.166Z,9.65
2018-09-02T03:50:55.049Z,9.51
2018-09-02T03:51:58.270Z,9.48
2018-09-02T03:53:01.155Z,9.43
2018-09-02T03:54:04.041Z,9.29
2018-09-02T03:55:07.055Z,9.37
2018-09-02T03:56:09.910Z,9.39
2018-09-02T03:57:12.836Z,9.45
2018-09-02T03:58:16.105Z,9.54
2018-09-02T03:59:19.016Z,9.56
2018-09-02T04:00:21.877Z,9.61
2018-09-02T04:01:24.826Z,9.58
2018-09-02T04:02:27.697Z,9.58
2018-09-02T04:03:30.600Z,9.62
2018-09-02T04:04:33.932Z,9.68
2018-09-02T04:05:36.809Z,9.66
2018-09-02T04:06:39.666Z,9.50
2018-09-02T04:07:42.532Z,9.45
2018-09-02T04:08:45.418Z,9.48
2018-09-02T04:09:48.322Z,9.43
2018-09-02T04:10:51.590Z,9.39
2018-09-02T04:11:54.503Z,9.32
2018-09-02T04:12:57.405Z,9.39
2018-09-02T04:14:00.301Z,9.39
2018-09-02T04:15:03.186Z,9.40
2018-09-02T04:16:06.086Z,9.43
2018-09-02T04:17:09.479Z,9.28
2018-09-02T04:18:12.367Z,9.16
2018-09-02T04:19:15.256Z,9.10
2018-09-02T04:20:22.066Z,9.16
2018-09-02T04:21:24.923Z,9.16
2018-09-02T04:22:27.786Z,9.03
2018-09-02T04:23:31.045Z,9.08
2018-09-02T04:24:33.924Z,9.18
2018-09-02T04:25:37.612Z,9.05
2018-09-02T04:26:40.839Z,8.90
2018-09-02T04:27:43.711Z,8.83
2018-09-02T04:28:46.583Z,8.81
2018-09-02T04:29:49.918Z,8.87
2018-09-02T04:30:52.826Z,8.95
2018-09-02T04:31:55.682Z,8.72
2018-09-02T04:32:58.649Z,8.84
2018-09-02T04:34:01.536Z,8.96
2018-09-02T04:35:04.433Z,8.99
2018-09-02T04:36:07.776Z,9.00
2018-09-02T04:37:10.682Z,8.95
2018-09-02T04:38:13.575Z,8.87
2018-09-02T04:39:16.442Z,8.86
2018-09-02T04:40:19.437Z,8.81
2018-09-02T04:41:22.326Z,8.85
2018-09-02T04:42:25.585Z,8.65
2018-09-02T04:43:29.155Z,8.60
2018-09-02T04:44:32.026Z,8.65
2018-09-02T04:45:34.929Z,8.84
2018-09-02T04:46:37.819Z,8.79
2018-09-02T04:47:40.734Z,8.77
2018-09-02T04:48:44.069Z,8.84
2018-09-02T04:49:46.989Z,8.98
2018-09-02T04:50:49.901Z,9.01
2018-09-02T04:51:52.763Z,9.03
2018-09-02T04:52:55.878Z,8.85
2018-09-02T04:53:58.782Z,8.49
2018-09-02T04:55:02.134Z,8.47
2018-09-02T04:56:05.062Z,8.22
2018-09-02T04:57:07.942Z,8.08
2018-09-02T04:58:10.814Z,8.20
2018-09-02T04:59:13.693Z,8.52
2018-09-02T05:00:16.651Z,8.58
2018-09-02T05:01:20.020Z,8.65
2018-09-02T05:02:22.870Z,8.56
2018-09-02T05:03:26.715Z,8.54
2018-09-02T05:04:29.618Z,8.54
2018-09-02T05:05:32.524Z,8.79
2018-09-02T05:06:35.412Z,8.92
2018-09-02T05:07:38.696Z,8.58
2018-09-02T05:08:41.600Z,8.04
2018-09-02T05:09:44.487Z,7.92
2018-09-02T05:10:47.351Z,8.21
2018-09-02T05:11:50.230Z,8.03
2018-09-02T05:12:53.623Z,7.91
2018-09-02T05:13:56.939Z,7.70
2018-09-02T05:14:59.794Z,7.63
2018-09-02T05:16:02.697Z,7.63
2018-09-02T05:17:05.572Z,7.72
2018-09-02T05:18:08.614Z,8.06
2018-09-02T05:19:11.489Z,7.93
2018-09-02T05:20:14.372Z,7.73
2018-09-02T05:21:17.239Z,7.72
2018-09-02T05:22:20.208Z,7.73
2018-09-02T05:23:23.056Z,8.00
2018-09-02T05:24:25.983Z,8.21
2018-09-02T05:25:28.857Z,8.37
2018-09-02T05:26:32.090Z,8.46
2018-09-02T05:27:35.146Z,8.23
2018-09-02T05:28:38.039Z,8.21
2018-09-02T05:29:41.521Z,8.30
2018-09-02T05:33:17.487Z,8.63
2018-09-02T05:34:20.388Z,8.85
2018-09-02T05:35:23.255Z,8.96
2018-09-02T05:36:26.133Z,8.99
2018-09-02T05:37:29.026Z,8.86
2018-09-02T05:38:32.381Z,9.03
2018-09-02T05:39:35.242Z,9.16
2018-09-02T05:40:38.551Z,9.30
2018-09-02T05:41:41.480Z,9.15
2018-09-02T05:42:44.386Z,8.73
2018-09-02T05:43:47.448Z,8.66
2018-09-02T05:44:50.658Z,8.53
2018-09-02T05:45:53.538Z,8.75
2018-09-02T05:46:56.430Z,8.93
2018-09-02T05:47:59.313Z,8.71
2018-09-02T05:49:02.186Z,8.93
2018-09-02T05:50:05.058Z,9.14
2018-09-02T05:51:08.279Z,9.25
2018-09-02T05:52:11.210Z,9.28
2018-09-02T05:53:15.020Z,9.18
2018-09-02T05:54:18.002Z,9.28
2018-09-02T05:55:20.900Z,9.39
2018-09-02T05:56:23.805Z,9.44
2018-09-02T05:57:27.221Z,9.46
2018-09-02T05:58:30.120Z,9.48
2018-09-02T05:59:32.999Z,9.46
2018-09-02T06:00:35.891Z,9.40
2018-09-02T06:01:39.385Z,9.48
2018-09-02T06:02:43.467Z,9.50
2018-09-02T06:03:46.768Z,9.62
2018-09-02T06:04:49.653Z,9.71
2018-09-02T06:05:52.698Z,9.89
2018-09-02T06:06:55.615Z,10.12
2018-09-02T06:07:59.349Z,10.31
2018-09-02T06:09:05.169Z,10.32
2018-09-02T06:10:08.510Z,10.41
2018-09-02T06:11:12.671Z,10.49
2018-09-02T06:12:15.598Z,10.81
2018-09-02T06:13:18.471Z,10.92
2018-09-02T06:14:21.394Z,10.90
2018-09-02T06:15:24.440Z,11.05
2018-09-02T06:16:27.848Z,11.47
2018-09-02T06:17:30.758Z,11.92
2018-09-02T06:18:34.727Z,12.33
2018-09-02T06:19:37.628Z,12.66
2018-09-02T06:20:40.523Z,12.64
2018-09-02T06:21:43.422Z,12.33
2018-09-02T06:22:46.679Z,12.44
2018-09-02T06:23:49.577Z,12.86
2018-09-02T06:24:52.440Z,13.10
2018-09-02T06:25:55.319Z,13.19
2018-09-02T06:26:58.206Z,13.24
2018-09-02T06:28:01.067Z,13.07
2018-09-02T06:29:04.446Z,12.63
2018-09-02T06:30:07.385Z,12.68
2018-09-02T06:31:10.273Z,12.94
2018-09-02T06:32:13.130Z,12.90
2018-09-02T06:33:16.007Z,12.88
2018-09-02T06:34:18.872Z,13.08
2018-09-02T06:35:22.157Z,12.85
2018-09-02T06:36:25.068Z,12.60
2018-09-02T06:37:27.931Z,13.22
2018-09-02T06:38:31.584Z,13.47
2018-09-02T06:39:34.478Z,13.60
2018-09-02T06:40:37.376Z,13.92
2018-09-02T06:41:40.930Z,13.84
2018-09-02T06:42:43.809Z,13.87
2018-09-02T06:43:46.865Z,14.35
2018-09-02T06:44:50.332Z,14.17
2018-09-02T06:45:53.317Z,14.21
2018-09-02T06:46:56.245Z,14.10
2018-09-02T06:47:59.655Z,14.36
2018-09-02T06:49:02.584Z,14.56
2018-09-02T06:50:05.445Z,14.82
2018-09-02T06:51:08.340Z,15.13
2018-09-02T06:52:11.235Z,15.36
2018-09-02T06:53:14.166Z,14.88
2018-09-02T06:54:17.602Z,14.73
2018-09-02T06:55:20.796Z,14.75
2018-09-02T06:56:23.975Z,15.16
2018-09-02T06:57:27.606Z,15.68
2018-09-02T06:58:30.492Z,15.67
2018-09-02T06:59:33.408Z,15.66
2018-09-02T07:00:36.771Z,15.71
2018-09-02T07:01:39.636Z,15.59
2018-09-02T07:02:42.781Z,15.71
2018-09-02T07:03:45.688Z,15.84
2018-09-02T07:04:50.065Z,16.21
2018-09-02T07:05:52.972Z,16.70
2018-09-02T07:06:56.259Z,16.78
2018-09-02T07:07:59.143Z,17.01
2018-09-02T07:09:03.876Z,16.92
2018-09-02T07:10:07.457Z,16.85
2018-09-02T07:11:11.413Z,16.83
2018-09-02T07:12:14.317Z,17.01
2018-09-02T07:13:18.564Z,17.57
2018-09-02T07:14:21.444Z,17.92
2018-09-02T07:15:24.666Z,18.03
2018-09-02T07:16:28.406Z,18.05
2018-09-02T07:17:31.376Z,18.10
2018-09-02T07:18:35.083Z,17.92
2018-09-02T07:19:38.468Z,18.33
2018-09-02T07:20:41.371Z,18.62
2018-09-02T07:21:44.265Z,18.88
2018-09-02T07:22:47.160Z,18.86
2018-09-02T07:23:50.072Z,18.33
2018-09-02T07:24:54.402Z,18.00
2018-09-02T07:25:57.742Z,17.50
2018-09-02T07:27:00.614Z,17.66
2018-09-02T07:28:03.505Z,17.89
2018-09-02T07:29:06.550Z,18.27
2018-09-02T07:30:09.445Z,18.21
2018-09-02T07:31:12.403Z,18.38
2018-09-02T07:32:15.787Z,18.65
2018-09-02T07:33:19.548Z,18.99
2018-09-02T07:34:22.606Z,18.71
2018-09-02T07:35:25.474Z,18.54
2018-09-02T07:36:28.395Z,18.93
2018-09-02T07:37:32.405Z,19.20
2018-09-02T07:38:35.842Z,19.16
2018-09-02T07:39:38.715Z,19.64
2018-09-02T07:40:41.846Z,20.20
2018-09-02T07:41:44.729Z,20.69
2018-09-02T07:42:47.648Z,20.97
2018-09-02T07:43:50.614Z,20.95
2018-09-02T07:44:54.035Z,20.89
2018-09-02T07:45:57.418Z,20.85
2018-09-02T07:47:00.365Z,20.74
2018-09-02T07:48:04.257Z,20.94
2018-09-02T07:49:08.356Z,20.93
2018-09-02T07:50:11.343Z,21.09
2018-09-02T07:51:15.295Z,21.63
2018-09-02T07:52:19.317Z,21.70
2018-09-02T07:53:22.211Z,21.56
2018-09-02T07:54:25.716Z,20.77
2018-09-02T07:55:28.606Z,20.85
2018-09-02T07:56:31.473Z,21.10
2018-09-02T07:57:34.853Z,21.04
2018-09-02T07:58:37.748Z,21.31
2018-09-02T07:59:40.633Z,21.56
2018-09-02T08:00:46.795Z,21.79
2018-09-02T08:01:49.681Z,21.64
2018-09-02T08:02:55.533Z,20.97
2018-09-02T08:03:59.473Z,21.00
2018-09-02T08:05:02.374Z,20.96
2018-09-02T08:06:06.257Z,21.05
2018-09-02T08:07:09.531Z,21.40
2018-09-02T08:08:12.416Z,21.47
2018-09-02T08:09:15.312Z,20.96
2018-09-02T08:10:19.692Z,20.76
2018-09-02T08:11:22.616Z,20.86
2018-09-02T08:12:25.524Z,20.76
2018-09-02T08:13:28.626Z,20.37
2018-09-02T08:14:32.344Z,20.37
2018-09-02T08:15:36.633Z,20.22
2018-09-02T08:16:42.712Z,20.82
2018-09-02T08:17:45.602Z,20.53
2018-09-02T08:18:48.650Z,20.57
2018-09-02T08:19:51.715Z,20.75
2018-09-02T08:20:54.641Z,20.20
2018-09-02T08:21:57.992Z,19.84
2018-09-02T08:23:01.527Z,19.66
2018-09-02T08:24:04.454Z,20.29
2018-09-02T08:25:08.784Z,20.62
2018-09-02T08:26:11.724Z,20.69
2018-09-02T08:27:14.590Z,21.12
2018-09-02T08:28:17.615Z,21.47
2018-09-02T08:29:20.854Z,22.20
2018-09-02T08:30:23.754Z,22.60
2018-09-02T08:31:27.579Z,23.12
2018-09-02T08:32:30.527Z,23.27
2018-09-02T08:33:34.440Z,23.27
2018-09-02T08:34:37.371Z,23.24
2018-09-02T08:35:40.946Z,22.95
2018-09-02T08:36:43.849Z,23.32
2018-09-02T08:37:46.719Z,23.40
2018-09-02T08:38:50.257Z,22.87
2018-09-02T08:39:53.279Z,23.27
2018-09-02T08:40:56.187Z,23.03
2018-09-02T08:41:59.157Z,22.32
2018-09-02T08:43:02.358Z,21.63
2018-09-02T08:44:05.196Z,21.65
2018-09-02T08:45:11.020Z,22.10
2018-09-02T08:46:14.793Z,22.60
2018-09-02T08:47:19.740Z,22.88
2018-09-02T08:48:22.970Z,22.56
2018-09-02T08:49:25.860Z,22.75
2018-09-02T08:50:30.144Z,22.57
2018-09-02T08:51:33.079Z,22.67
2018-09-02T08:52:36.506Z,23.21
2018-09-02T08:53:41.660Z,23.14
2018-09-02T08:54:45.628Z,23.40
2018-09-02T08:55:48.794Z,23.63
2018-09-02T08:56:51.793Z,23.32
2018-09-02T08:57:55.010Z,23.26
2018-09-02T08:58:57.949Z,23.37
2018-09-02T09:00:01.637Z,23.54
2018-09-02T09:01:05.714Z,23.66
2018-09-02T09:02:08.895Z,23.72
2018-09-02T09:03:11.932Z,23.94
2018-09-02T09:04:14.924Z,23.93
2018-09-02T09:05:17.842Z,23.34
2018-09-02T09:06:21.162Z,23.00
2018-09-02T09:07:24.357Z,23.37
2018-09-02T09:08:27.444Z,23.75
2018-09-02T09:09:30.213Z,24.12
2018-09-02T09:10:33.325Z,23.24
2018-09-02T09:11:36.637Z,22.79
2018-09-02T09:12:40.190Z,22.62
2018-09-02T09:13:44.110Z,22.25
2018-09-02T09:14:48.071Z,22.77
2018-09-02T09:15:51.050Z,23.22
2018-09-02T09:16:54.176Z,23.41
2018-09-02T09:17:57.747Z,23.56
2018-09-02T09:19:01.581Z,24.09
2018-09-02T09:20:04.593Z,24.44
2018-09-02T09:21:07.727Z,24.75
2018-09-02T09:22:10.761Z,24.87
2018-09-02T09:23:13.684Z,24.48
2018-09-02T09:24:17.255Z,23.94
2018-09-02T09:25:21.374Z,23.80
2018-09-02T09:26:24.320Z,23.41
2018-09-02T09:27:27.838Z,22.91
2018-09-02T09:28:30.747Z,22.46
2018-09-02T09:29:33.618Z,22.27
2018-09-02T09:30:36.516Z,22.15
2018-09-02T09:31:39.730Z,21.93
2018-09-02T09:32:42.659Z,21.84
2018-09-02T09:33:46.519Z,21.55
2018-09-02T09:34:49.708Z,21.39
2018-09-02T09:35:53.189Z,21.40
2018-09-02T09:36:56.990Z,21.53
2018-09-02T09:38:00.839Z,21.48
2018-09-02T09:39:04.008Z,21.10
2018-09-02T09:40:07.453Z,21.00
2018-09-02T09:41:10.951Z,21.07
2018-09-02T09:42:13.898Z,21.16
2018-09-02T09:43:16.888Z,21.16
2018-09-02T09:44:20.107Z,21.11
2018-09-02T09:45:23.482Z,21.38
2018-09-02T09:46:26.367Z,21.24
2018-09-02T09:47:29.260Z,21.16
2018-09-02T09:48:32.158Z,21.18
2018-09-02T09:49:36.342Z,21.47
2018-09-02T09:50:39.733Z,21.70
2018-09-02T09:51:44.790Z,21.71
2018-09-02T09:52:47.683Z,21.58
2018-09-02T09:53:50.859Z,21.42
2018-09-02T09:54:53.941Z,21.35
2018-09-02T09:55:56.845Z,21.17
2018-09-02T09:57:01.622Z,21.16
2018-09-02T09:58:05.581Z,21.05
2018-09-02T09:59:08.463Z,21.05
2018-09-02T10:00:11.606Z,21.05
2018-09-02T10:01:17.476Z,21.08
2018-09-02T10:02:20.368Z,21.11
2018-09-02T10:03:23.870Z,21.14
2018-09-02T10:04:26.945Z,21.10
2018-09-02T10:05:29.853Z,21.23
2018-09-02T10:06:32.723Z,21.30
2018-09-02T10:07:35.860Z,21.30
2018-09-02T10:08:40.039Z,21.36
2018-09-02T10:09:44.048Z,21.12
2018-09-02T10:10:47.428Z,21.05
2018-09-02T10:11:50.424Z,21.03
2018-09-02T10:12:53.336Z,20.98
2018-09-02T10:13:56.868Z,20.97
2018-09-02T10:15:02.815Z,21.12
2018-09-02T10:16:06.742Z,21.11
2018-09-02T10:17:12.419Z,21.07
2018-09-02T10:18:16.609Z,21.07
2018-09-02T10:19:20.132Z,21.01
2018-09-02T10:20:23.231Z,20.76
2018-09-02T10:21:26.153Z,20.65
2018-09-02T10:22:29.351Z,20.70
2018-09-02T10:23:32.263Z,20.79
2018-09-02T10:24:36.043Z,20.72
2018-09-02T10:25:40.521Z,20.73
2018-09-02T10:26:43.414Z,20.74
2018-09-02T10:27:46.365Z,20.87
2018-09-02T10:28:50.215Z,20.97
2018-09-02T10:29:54.093Z,20.98
2018-09-02T10:32:20.976Z,21.11
2018-09-02T10:33:24.239Z,21.03
2018-09-02T10:34:29.711Z,20.94
2018-09-02T10:35:34.126Z,20.92
2018-09-02T10:36:38.757Z,20.96
2018-09-02T10:37:42.033Z,20.95
2018-09-02T10:38:45.503Z,20.98
2018-09-02T10:39:48.610Z,21.05
2018-09-02T10:40:51.545Z,21.08
2018-09-02T10:41:54.874Z,21.21
2018-09-02T10:42:57.797Z,21.89
2018-09-02T10:44:00.726Z,22.20
2018-09-02T10:45:04.619Z,22.66
2018-09-02T10:46:07.490Z,23.44
2018-09-02T10:47:10.416Z,24.26
2018-09-02T10:48:14.388Z,24.61
2018-09-02T10:49:18.839Z,24.44
2018-09-02T10:50:22.490Z,23.84
2018-09-02T10:51:25.375Z,23.39
2018-09-02T10:52:28.280Z,22.81
2018-09-02T10:53:32.481Z,21.70
2018-09-02T10:54:36.732Z,21.24
2018-09-02T10:55:41.375Z,21.29
2018-09-02T10:56:44.261Z,21.48
2018-09-02T10:57:47.742Z,21.76
2018-09-02T10:58:50.615Z,21.73
2018-09-02T10:59:54.262Z,21.88
2018-09-02T11:00:58.367Z,21.93
2018-09-02T11:02:01.246Z,21.87
2018-09-02T11:03:04.207Z,21.93
2018-09-02T11:04:07.113Z,22.03
2018-09-02T11:05:10.412Z,22.09
2018-09-02T11:06:13.275Z,22.19
2018-09-02T11:07:16.455Z,22.27
2018-09-02T11:08:19.330Z,22.16
2018-09-02T11:09:22.990Z,22.33
2018-09-02T11:10:25.867Z,22.43
2018-09-02T11:11:28.814Z,22.39
2018-09-02T11:12:31.747Z,22.36
2018-09-02T11:13:35.223Z,22.33
2018-09-02T11:14:38.701Z,22.43
2018-09-02T11:15:41.772Z,22.54
2018-09-02T11:16:46.240Z,22.84
2018-09-02T11:17:51.900Z,22.78
2018-09-02T11:18:54.915Z,22.58
2018-09-02T11:19:59.955Z,22.54
2018-09-02T11:21:03.273Z,22.70
2018-09-02T11:22:09.021Z,22.63
2018-09-02T11:23:13.488Z,22.42
2018-09-02T11:24:16.411Z,22.40
2018-09-02T11:25:20.547Z,22.41
2018-09-02T11:26:23.481Z,22.41
2018-09-02T11:27:26.358Z,22.46
2018-09-02T11:28:29.271Z,22.28
2018-09-02T11:29:32.313Z,22.17
2018-09-02T11:30:35.499Z,22.05
2018-09-02T11:31:38.555Z,22.07
2018-09-02T11:32:42.146Z,22.14
2018-09-02T11:33:46.964Z,22.22
2018-09-02T11:34:49.841Z,22.42
2018-09-02T11:35:52.703Z,22.37
2018-09-02T11:36:56.693Z,22.10
2018-09-02T11:38:00.657Z,22.11
2018-09-02T11:39:03.985Z,22.06
2018-09-02T11:40:07.581Z,21.87
2018-09-02T11:41:12.873Z,21.55
2018-09-02T11:42:16.722Z,21.39
2018-09-02T11:43:21.012Z,21.32
2018-09-02T11:44:25.651Z,21.40
2018-09-02T11:45:28.769Z,21.38
2018-09-02T11:46:32.345Z,21.33
2018-09-02T11:47:35.226Z,21.30
2018-09-02T11:48:39.708Z,21.18
2018-09-02T11:49:43.039Z,20.91
2018-09-02T11:50:47.864Z,20.97
2018-09-02T11:51:51.616Z,21.04
2018-09-02T11:52:57.900Z,21.07
2018-09-02T11:54:00.823Z,21.01
2018-09-02T11:55:04.386Z,20.87
2018-09-02T11:56:08.226Z,20.95
2018-09-02T11:57:11.232Z,21.16
2018-09-02T11:58:14.107Z,21.18
2018-09-02T11:59:17.618Z,21.07
2018-09-02T12:00:20.870Z,21.14
2018-09-02T12:02:33.228Z,21.04
2018-09-02T12:03:36.187Z,21.13
2018-09-02T12:04:39.143Z,21.03
2018-09-02T12:05:42.543Z,21.10
2018-09-02T12:06:45.468Z,21.12
2018-09-02T12:07:48.862Z,21.12
2018-09-02T12:08:51.734Z,20.99
2018-09-02T12:09:54.747Z,20.97
2018-09-02T12:11:01.651Z,20.92
2018-09-02T12:12:04.595Z,20.73
2018-09-02T12:13:08.638Z,20.73
2018-09-02T12:14:13.591Z,20.62
2018-09-02T12:15:16.819Z,20.74
2018-09-02T12:16:20.323Z,20.72
2018-09-02T12:17:26.437Z,20.70
2018-09-02T12:18:29.505Z,20.76
2018-09-02T12:19:33.558Z,20.70
2018-09-02T12:20:37.817Z,20.86
2018-09-02T12:21:42.401Z,20.94
2018-09-02T12:22:45.437Z,21.00
2018-09-02T12:23:48.667Z,21.06
2018-09-02T12:24:52.451Z,21.14
2018-09-02T12:25:55.798Z,21.18
2018-09-02T12:26:59.043Z,21.34
2018-09-02T12:28:02.082Z,21.30
2018-09-02T12:29:04.996Z,21.22
2018-09-02T12:30:07.941Z,21.37
2018-09-02T12:31:11.503Z,21.24
2018-09-02T12:32:14.475Z,21.18
2018-09-02T12:33:17.851Z,20.95
2018-09-02T12:34:20.749Z,20.94
2018-09-02T12:35:23.901Z,21.08
2018-09-02T12:36:26.781Z,21.23
2018-09-02T12:37:29.733Z,21.18
2018-09-02T12:38:33.827Z,21.12
2018-09-02T12:39:37.675Z,21.26
2018-09-02T12:40:41.443Z,21.35
2018-09-02T12:41:47.438Z,21.41
2018-09-02T12:42:50.446Z,21.49
2018-09-02T12:43:53.335Z,21.52
2018-09-02T12:44:57.542Z,21.87
2018-09-02T12:46:02.182Z,21.81
2018-09-02T12:47:06.446Z,21.65
2018-09-02T12:48:09.441Z,21.71
2018-09-02T12:49:12.397Z,21.71
2018-09-02T12:50:16.460Z,21.76
2018-09-02T12:51:20.685Z,21.78
2018-09-02T12:52:23.834Z,21.66
2018-09-02T12:53:27.417Z,21.75
2018-09-02T12:54:34.099Z,21.85
2018-09-02T12:55:37.742Z,21.80
2018-09-02T12:56:40.689Z,21.92
2018-09-02T12:57:45.149Z,22.07
2018-09-02T12:58:48.100Z,22.23
2018-09-02T12:59:51.050Z,22.27
2018-09-02T13:00:54.431Z,22.26
2018-09-02T13:01:58.243Z,22.65
2018-09-02T13:03:02.082Z,23.23
2018-09-02T13:04:05.495Z,23.77
2018-09-02T13:05:08.409Z,23.78
2018-09-02T13:06:11.422Z,23.48
2018-09-02T13:07:14.424Z,23.96
2018-09-02T13:08:17.320Z,24.33
2018-09-02T13:09:20.252Z,24.90
2018-09-02T13:10:27.181Z,24.45
2018-09-02T13:11:30.183Z,24.57
2018-09-02T13:12:35.775Z,24.21
2018-09-02T13:13:38.674Z,23.74
2018-09-02T13:14:42.472Z,23.44
2018-09-02T13:15:45.423Z,23.25
2018-09-02T13:16:50.062Z,23.12
2018-09-02T13:17:52.960Z,22.90
2018-09-02T13:18:55.943Z,22.70
2018-09-02T13:19:59.899Z,22.52
2018-09-02T13:21:02.816Z,22.46
2018-09-02T13:22:06.686Z,22.39
2018-09-02T13:23:10.635Z,22.39
2018-09-02T13:24:13.524Z,22.38
2018-09-02T13:25:16.497Z,22.21
2018-09-02T13:26:20.608Z,22.14
2018-09-02T13:27:23.923Z,22.23
2018-09-02T13:28:26.870Z,22.28
2018-09-02T13:29:30.397Z,22.21
2018-09-02T13:30:33.311Z,22.17
2018-09-02T13:31:36.664Z,22.17
2018-09-02T13:32:41.866Z,22.09
2018-09-02T13:33:44.785Z,22.06
2018-09-02T13:34:47.663Z,21.98
2018-09-02T13:35:51.005Z,21.75
2018-09-02T13:36:54.134Z,21.73
2018-09-02T13:37:57.037Z,21.80
2018-09-02T13:38:59.925Z,21.77
2018-09-02T13:40:02.935Z,21.70
2018-09-02T13:41:07.263Z,21.73
2018-09-02T13:42:10.462Z,21.79
2018-09-02T13:43:13.373Z,21.80
2018-09-02T13:44:16.306Z,21.89
2018-09-02T13:45:19.280Z,22.00
2018-09-02T13:46:22.159Z,22.12